KPSC

Tri-Cities Airport

Pasco, Washington, USA
METAR KPSC 191653Z 00000KT 2 1/2SM HZ FU CLR 23/12 A3003 RMK AO2 SLP165 T02280117
Observed Flight Rules
Aug-19 @ 16:53 UTC (20 minutes ago) Instrument Flight Rules
Visibility Clouds Conditions
2 1/2 miles
  • Clear skies
  • Haze
  • Smoke
Temperatures Readings
Current 23°C / 73°F
Dewpoint 12°C / 54°F
Humidity 50%
Altimeter 30.03" Hg
Pressure 1016.5 hPa
Elevation 121
METAR KPSC 191653Z 00000KT 2 1/2SM HZ FU CLR 23/12 A3003 RMK AO2 SLP165 T02280117
Observed Flight Rules
Aug-19 @ 16:53 UTC
(20 minutes ago)
IFR
Clouds
  • Clear skies
Conditions
  • Haze
  • Smoke
Temperature Dewpoint
23°C / 73°F 12°C / 54°F
Humidity Altimeter Pressure
50% 30.03" Hg 1016.5 hPa